createdAt,value
2023-05-28T00:00:45.626Z,8.23
2023-05-28T00:03:13.338Z,8.00
2023-05-28T00:05:40.051Z,9.07
2023-05-28T00:08:06.706Z,8.05
2023-05-28T00:10:33.353Z,12.00
2023-05-28T00:13:00.273Z,7.82
2023-05-28T00:15:27.165Z,13.50
2023-05-28T00:17:54.745Z,8.77
2023-05-28T00:20:22.703Z,7.90
2023-05-28T00:22:49.871Z,10.68
2023-05-28T00:25:16.571Z,8.80
2023-05-28T00:27:43.201Z,7.05
2023-05-28T00:30:09.965Z,9.02
2023-05-28T00:32:36.612Z,14.75
2023-05-28T00:35:03.732Z,11.35
2023-05-28T00:37:30.464Z,7.65
2023-05-28T00:39:57.074Z,8.10
2023-05-28T00:42:25.521Z,9.48
2023-05-28T00:44:52.143Z,13.45
2023-05-28T00:47:18.832Z,7.55
2023-05-28T00:49:45.464Z,9.57
2023-05-28T00:52:12.333Z,10.63
2023-05-28T00:54:39.017Z,9.52
2023-05-28T00:57:06.250Z,9.93
2023-05-28T00:59:35.230Z,8.82
2023-05-28T01:02:02.577Z,11.27
2023-05-28T01:04:32.268Z,9.32
2023-05-28T01:06:59.621Z,7.88
2023-05-28T01:09:26.921Z,9.02
2023-05-28T01:11:54.734Z,10.80
2023-05-28T01:14:22.506Z,9.07
2023-05-28T01:16:49.516Z,7.00
2023-05-28T01:19:28.409Z,13.02
2023-05-28T01:22:05.161Z,10.90
2023-05-28T01:24:37.083Z,7.65
2023-05-28T01:27:04.675Z,10.80
2023-05-28T01:29:31.375Z,8.65
2023-05-28T01:32:00.021Z,8.02
2023-05-28T01:34:26.987Z,9.75
2023-05-28T01:36:59.409Z,8.57
2023-05-28T01:39:34.556Z,9.40
2023-05-28T01:42:03.616Z,7.05
2023-05-28T01:44:30.732Z,12.77
2023-05-28T01:46:58.039Z,7.82
2023-05-28T01:49:24.772Z,11.48
2023-05-28T01:51:52.616Z,6.82
2023-05-28T01:54:21.521Z,10.90
2023-05-28T01:56:48.192Z,8.10
2023-05-28T01:59:14.791Z,7.70
2023-05-28T02:01:41.769Z,8.25
2023-05-28T02:04:08.626Z,7.75
2023-05-28T02:06:35.522Z,7.47
2023-05-28T02:09:02.421Z,9.30
2023-05-28T02:11:29.316Z,9.20
2023-05-28T02:13:56.365Z,8.27
2023-05-28T02:16:23.502Z,8.52
2023-05-28T02:18:53.525Z,13.30
2023-05-28T02:21:20.332Z,9.82
2023-05-28T02:23:48.558Z,12.00
2023-05-28T02:26:16.323Z,16.67
2023-05-28T02:28:44.161Z,14.90
2023-05-28T02:31:14.668Z,10.27
2023-05-28T02:33:45.077Z,9.63
2023-05-28T02:36:12.867Z,8.65
2023-05-28T02:38:40.897Z,10.15
2023-05-28T02:41:07.758Z,10.60
2023-05-28T02:43:34.640Z,12.57
2023-05-28T02:46:01.495Z,10.77
2023-05-28T02:48:28.514Z,10.15
2023-05-28T02:50:55.172Z,10.75
2023-05-28T02:53:23.529Z,8.68
2023-05-28T02:55:50.714Z,10.65
2023-05-28T02:58:17.433Z,9.68
2023-05-28T03:00:44.086Z,9.02
2023-05-28T03:03:11.048Z,12.63
2023-05-28T03:05:37.787Z,13.52
2023-05-28T03:08:04.653Z,11.73
2023-05-28T03:10:31.231Z,9.93
2023-05-28T03:12:57.915Z,8.18
2023-05-28T03:15:27.677Z,8.88
2023-05-28T03:17:55.301Z,7.47
2023-05-28T03:20:22.275Z,9.75
2023-05-28T03:22:50.157Z,10.98
2023-05-28T03:25:16.839Z,10.98
2023-05-28T03:27:43.521Z,7.97
2023-05-28T03:30:11.204Z,10.77
2023-05-28T03:32:38.062Z,10.73
2023-05-28T03:35:05.169Z,10.27
2023-05-28T03:37:31.923Z,10.27
2023-05-28T03:39:58.521Z,11.65
2023-05-28T03:42:25.252Z,12.00
2023-05-28T03:44:51.863Z,9.63
2023-05-28T03:47:19.207Z,9.57
2023-05-28T03:49:46.128Z,9.35
2023-05-28T03:52:12.763Z,11.20
2023-05-28T03:54:39.331Z,13.55
2023-05-28T03:57:06.876Z,7.03
2023-05-28T03:59:33.524Z,10.23
2023-05-28T04:02:00.193Z,10.27
2023-05-28T04:04:26.838Z,10.30
2023-05-28T04:06:53.711Z,12.52
2023-05-28T04:09:20.551Z,10.38
2023-05-28T04:11:47.219Z,10.07
2023-05-28T04:14:13.936Z,9.52
2023-05-28T04:16:40.952Z,9.00
2023-05-28T04:19:07.587Z,13.45
2023-05-28T04:21:34.159Z,17.13
2023-05-28T04:24:01.487Z,10.02
2023-05-28T04:26:28.200Z,11.32
2023-05-28T04:28:54.827Z,8.57
2023-05-28T04:31:21.591Z,14.82
2023-05-28T04:33:48.571Z,13.38
2023-05-28T04:36:15.405Z,12.13
2023-05-28T04:38:44.981Z,8.63
2023-05-28T04:41:15.165Z,11.77
2023-05-28T04:43:42.458Z,12.75
2023-05-28T04:46:09.896Z,10.88
2023-05-28T04:48:37.002Z,14.15
2023-05-28T04:51:08.213Z,8.57
2023-05-28T04:53:35.114Z,10.43
2023-05-28T04:56:04.104Z,11.45
2023-05-28T04:58:30.764Z,11.90
2023-05-28T05:00:57.527Z,9.32
2023-05-28T05:03:24.201Z,10.82
2023-05-28T05:05:50.785Z,16.77
2023-05-28T05:08:17.739Z,15.93
2023-05-28T05:10:44.454Z,14.57
2023-05-28T05:13:11.123Z,17.02
2023-05-28T05:15:37.994Z,13.80
2023-05-28T05:18:04.762Z,9.93
2023-05-28T05:20:31.664Z,11.65
2023-05-28T05:22:58.419Z,14.90
2023-05-28T05:25:25.022Z,11.57
2023-05-28T05:27:52.003Z,13.38
2023-05-28T05:30:18.872Z,12.50
2023-05-28T05:32:45.896Z,13.07
2023-05-28T05:35:12.918Z,15.55
2023-05-28T05:37:39.557Z,11.05
2023-05-28T05:40:07.199Z,12.57
2023-05-28T05:42:33.936Z,13.65
2023-05-28T05:45:00.557Z,15.65
2023-05-28T05:47:27.301Z,12.55
2023-05-28T05:49:54.008Z,11.82
2023-05-28T05:52:22.796Z,15.13
2023-05-28T05:54:49.549Z,14.05
2023-05-28T05:57:18.773Z,9.32
2023-05-28T05:59:45.451Z,13.25
2023-05-28T06:02:12.166Z,11.18
2023-05-28T06:04:39.299Z,16.90
2023-05-28T06:07:07.638Z,11.38
2023-05-28T06:09:35.165Z,11.13
2023-05-28T06:12:03.022Z,9.48
2023-05-28T06:14:30.015Z,9.68
2023-05-28T06:16:57.148Z,14.15
2023-05-28T06:19:24.034Z,10.10
2023-05-28T06:21:52.602Z,12.77
2023-05-28T06:24:19.242Z,9.85
2023-05-28T06:26:46.458Z,9.95
2023-05-28T06:29:13.071Z,8.82
2023-05-28T06:31:41.170Z,8.43
2023-05-28T06:34:08.001Z,14.48
2023-05-28T06:36:36.916Z,9.18
2023-05-28T06:39:05.565Z,8.73
2023-05-28T06:41:32.493Z,10.63
2023-05-28T06:43:59.137Z,6.70
2023-05-28T06:46:26.080Z,14.25
2023-05-28T06:48:52.707Z,9.27
2023-05-28T06:51:19.320Z,11.07
2023-05-28T06:53:46.008Z,8.63
2023-05-28T06:56:12.913Z,7.57
2023-05-28T06:58:40.282Z,9.02
2023-05-28T07:01:06.946Z,11.35
2023-05-28T07:03:33.618Z,9.63
2023-05-28T07:06:00.894Z,7.72
2023-05-28T07:08:27.770Z,9.18
2023-05-28T07:10:54.424Z,6.38
2023-05-28T07:13:21.011Z,8.95
2023-05-28T07:15:47.669Z,9.55
2023-05-28T07:18:14.794Z,8.50
2023-05-28T07:20:41.457Z,9.68
2023-05-28T07:23:08.191Z,9.32
2023-05-28T07:25:34.878Z,6.93
2023-05-28T07:28:01.470Z,12.73
2023-05-28T07:30:28.154Z,7.53
2023-05-28T07:32:54.714Z,9.32
2023-05-28T07:35:21.436Z,11.32
2023-05-28T07:37:48.011Z,7.80
2023-05-28T07:40:15.557Z,8.38
2023-05-28T07:42:42.231Z,7.97
2023-05-28T07:45:09.179Z,9.20
2023-05-28T07:47:36.212Z,8.70
2023-05-28T07:50:05.303Z,10.82
2023-05-28T07:52:31.913Z,6.63
2023-05-28T07:55:02.273Z,9.85
2023-05-28T07:57:28.925Z,5.38
2023-05-28T07:59:55.646Z,6.72
2023-05-28T08:02:22.465Z,9.70
2023-05-28T08:04:50.241Z,8.93
2023-05-28T08:07:17.530Z,10.50
2023-05-28T08:09:44.389Z,10.73
2023-05-28T08:12:11.564Z,8.95
2023-05-28T08:14:38.404Z,6.03
2023-05-28T08:17:05.219Z,6.13
2023-05-28T08:19:31.983Z,7.45
2023-05-28T08:21:58.639Z,12.45
2023-05-28T08:24:25.230Z,8.75
2023-05-28T08:26:51.931Z,7.00
2023-05-28T08:29:19.984Z,9.55
2023-05-28T08:31:47.326Z,8.00
2023-05-28T08:34:13.994Z,6.13
2023-05-28T08:36:40.558Z,8.82
2023-05-28T08:39:07.631Z,7.45
2023-05-28T08:41:34.273Z,7.22
2023-05-28T08:44:00.961Z,8.55
2023-05-28T08:46:30.701Z,5.55
2023-05-28T08:48:58.861Z,7.45
2023-05-28T08:51:27.219Z,6.82
2023-05-28T08:53:54.413Z,6.60
2023-05-28T08:56:22.119Z,6.13
2023-05-28T08:58:50.040Z,6.25
2023-05-28T09:01:17.029Z,8.07
2023-05-28T09:03:43.809Z,6.20
2023-05-28T09:06:13.718Z,8.85
2023-05-28T09:08:40.647Z,8.27
2023-05-28T09:11:15.393Z,7.15
2023-05-28T09:13:43.797Z,10.13
2023-05-28T09:16:12.906Z,7.93
2023-05-28T09:18:41.103Z,6.35
2023-05-28T09:21:12.428Z,5.50
2023-05-28T09:23:40.693Z,7.53
2023-05-28T09:26:12.307Z,8.85
2023-05-28T09:28:45.201Z,7.97
2023-05-28T09:31:12.004Z,8.68
2023-05-28T09:33:48.496Z,7.95
2023-05-28T09:36:20.690Z,4.43
2023-05-28T09:38:47.340Z,8.35
2023-05-28T09:41:29.977Z,6.68
2023-05-28T09:44:05.448Z,6.93
2023-05-28T09:46:35.841Z,8.80
2023-05-28T09:49:04.081Z,9.50
2023-05-28T09:51:34.450Z,11.05
2023-05-28T09:54:07.291Z,7.65
2023-05-28T09:56:37.680Z,9.05
2023-05-28T09:59:08.145Z,7.70
2023-05-28T10:01:51.504Z,9.70
2023-05-28T10:04:21.429Z,8.65
2023-05-28T10:06:48.859Z,9.70
2023-05-28T10:09:19.669Z,7.00
2023-05-28T10:12:00.515Z,12.75
2023-05-28T10:14:27.617Z,7.63
2023-05-28T10:16:54.757Z,9.30
2023-05-28T10:19:22.475Z,7.95
2023-05-28T10:21:49.658Z,6.55
2023-05-28T10:24:17.656Z,6.63
2023-05-28T10:26:45.290Z,13.20
2023-05-28T10:29:11.922Z,6.63
2023-05-28T10:31:38.634Z,7.68
2023-05-28T10:34:18.778Z,8.60
2023-05-28T10:37:03.580Z,8.68
2023-05-28T10:39:43.971Z,7.57
2023-05-28T10:42:14.261Z,8.82
2023-05-28T10:45:05.301Z,8.70
2023-05-28T10:47:36.997Z,6.80
2023-05-28T10:50:15.992Z,6.68
2023-05-28T10:52:44.725Z,9.80
2023-05-28T10:55:13.369Z,8.77
2023-05-28T10:57:54.198Z,8.63
2023-05-28T11:00:25.139Z,6.78
2023-05-28T11:02:56.031Z,11.15
2023-05-28T11:05:27.553Z,8.30
2023-05-28T11:07:56.722Z,7.93
2023-05-28T11:10:23.527Z,9.65
2023-05-28T11:12:51.547Z,7.55
2023-05-28T11:15:18.183Z,8.55
2023-05-28T11:17:46.717Z,8.25
2023-05-28T11:20:20.574Z,7.38
2023-05-28T11:22:47.848Z,8.20
2023-05-28T11:25:15.186Z,8.27
2023-05-28T11:27:42.498Z,3.85
2023-05-28T11:30:12.539Z,5.20
2023-05-28T11:32:40.223Z,5.90
2023-05-28T11:35:07.964Z,6.10
2023-05-28T11:37:35.930Z,8.30
2023-05-28T11:40:10.976Z,5.90
2023-05-28T11:42:40.253Z,7.72
2023-05-28T11:45:08.679Z,7.82
2023-05-28T11:47:36.467Z,7.60
2023-05-28T11:50:10.465Z,9.23
2023-05-28T11:52:37.467Z,7.28
2023-05-28T11:55:04.829Z,7.68
2023-05-28T11:57:38.276Z,10.27
2023-05-28T12:00:13.102Z,4.75
2023-05-28T12:02:58.108Z,7.50
2023-05-28T12:05:24.925Z,5.90
2023-05-28T12:07:55.614Z,5.53
2023-05-28T12:10:23.430Z,7.03
2023-05-28T12:12:52.253Z,7.80
2023-05-28T12:15:28.218Z,12.18
2023-05-28T12:18:00.806Z,5.78
2023-05-28T12:20:34.780Z,4.55
2023-05-28T12:23:08.358Z,5.45
2023-05-28T12:25:45.418Z,9.95
2023-05-28T12:28:12.782Z,3.28
2023-05-28T12:30:40.662Z,7.18
2023-05-28T12:33:07.373Z,6.32
2023-05-28T12:35:34.352Z,8.52
2023-05-28T12:38:02.135Z,6.32
2023-05-28T12:40:28.995Z,3.97
2023-05-28T12:42:55.649Z,7.22
2023-05-28T12:45:22.423Z,6.25
2023-05-28T12:47:49.153Z,5.97
2023-05-28T12:50:17.655Z,5.63
2023-05-28T12:52:44.285Z,6.22
2023-05-28T12:55:15.153Z,6.32
2023-05-28T12:57:42.414Z,5.05
2023-05-28T13:00:11.870Z,6.95
2023-05-28T13:02:39.323Z,5.78
2023-05-28T13:05:06.767Z,11.40
2023-05-28T13:07:33.609Z,5.82
2023-05-28T13:10:01.054Z,6.85
2023-05-28T13:12:27.696Z,5.70
2023-05-28T13:14:54.310Z,5.95
2023-05-28T13:17:24.000Z,4.38
2023-05-28T13:19:50.669Z,6.63
2023-05-28T13:22:17.310Z,8.20
2023-05-28T13:24:47.597Z,4.70
2023-05-28T13:27:15.063Z,4.28
2023-05-28T13:29:41.740Z,4.80
2023-05-28T13:32:08.960Z,6.45
2023-05-28T13:34:35.907Z,6.50
2023-05-28T13:37:02.573Z,4.75
2023-05-28T13:39:31.793Z,6.38
2023-05-28T13:41:58.523Z,6.50
2023-05-28T13:44:25.653Z,4.70
2023-05-28T13:46:52.780Z,7.35
2023-05-28T13:49:19.546Z,4.25
2023-05-28T13:51:47.159Z,4.82
2023-05-28T13:54:15.698Z,6.75
2023-05-28T13:56:43.088Z,3.65
2023-05-28T13:59:09.919Z,3.60
2023-05-28T14:01:37.525Z,4.35
2023-05-28T14:06:55.002Z,5.20
2023-05-28T14:09:21.582Z,4.38
2023-05-28T14:12:16.733Z,3.60
2023-05-28T14:14:35.472Z,3.38
2023-05-28T14:17:02.216Z,3.97
2023-05-28T14:19:28.970Z,4.40
2023-05-28T14:21:55.822Z,4.18
2023-05-28T14:24:22.477Z,4.45
2023-05-28T14:26:49.094Z,4.60
2023-05-28T14:29:15.858Z,4.13
2023-05-28T14:31:42.503Z,4.80
2023-05-28T14:34:09.177Z,3.45
2023-05-28T14:36:36.809Z,5.10
2023-05-28T14:39:03.754Z,5.40
2023-05-28T14:41:30.470Z,4.32
2023-05-28T14:43:57.108Z,6.47
2023-05-28T14:46:23.808Z,4.95
2023-05-28T14:48:50.537Z,4.85
2023-05-28T14:51:17.316Z,4.55
2023-05-28T14:53:43.900Z,4.95
2023-05-28T14:56:11.159Z,3.90
2023-05-28T14:58:37.905Z,6.57
2023-05-28T15:01:04.667Z,3.45
2023-05-28T15:03:31.962Z,5.15
2023-05-28T15:05:59.225Z,3.70
2023-05-28T15:08:25.873Z,4.57
2023-05-28T15:10:52.761Z,4.10
2023-05-28T15:13:20.013Z,4.20
2023-05-28T15:15:48.411Z,4.18
2023-05-28T15:18:15.481Z,5.20
2023-05-28T15:20:42.278Z,4.90
2023-05-28T15:23:09.173Z,6.45
2023-05-28T15:25:36.894Z,6.45
2023-05-28T15:28:03.831Z,6.75
2023-05-28T15:30:30.781Z,2.92
2023-05-28T15:32:59.272Z,4.53
2023-05-28T15:35:28.780Z,3.85
2023-05-28T15:37:56.533Z,6.63
2023-05-28T15:40:23.909Z,4.70
2023-05-28T15:42:56.200Z,4.25
2023-05-28T15:45:24.690Z,3.55
2023-05-28T15:47:51.497Z,5.18
2023-05-28T15:50:18.178Z,4.28
2023-05-28T15:52:44.893Z,7.53
2023-05-28T15:55:11.960Z,5.10
2023-05-28T15:57:39.021Z,5.55
2023-05-28T16:00:06.347Z,6.22
2023-05-28T16:02:36.275Z,5.43
2023-05-28T16:05:03.141Z,3.88
2023-05-28T16:07:31.487Z,7.60
2023-05-28T16:09:58.363Z,4.93
2023-05-28T16:12:28.528Z,4.75
2023-05-28T16:14:56.117Z,5.30
2023-05-28T16:17:23.316Z,5.35
2023-05-28T16:19:50.384Z,5.55
2023-05-28T16:22:18.499Z,4.28
2023-05-28T16:24:45.431Z,3.78
2023-05-28T16:27:13.726Z,3.38
2023-05-28T16:29:41.026Z,5.40
2023-05-28T16:32:08.389Z,4.38
2023-05-28T16:34:35.301Z,5.47
2023-05-28T16:37:02.183Z,3.83
2023-05-28T16:39:29.064Z,5.15
2023-05-28T16:41:56.080Z,4.22
2023-05-28T16:44:22.902Z,5.05
2023-05-28T16:46:53.399Z,5.05
2023-05-28T16:49:20.412Z,5.00
2023-05-28T16:51:48.459Z,6.15
2023-05-28T16:54:17.371Z,4.03
2023-05-28T16:56:44.867Z,5.40
2023-05-28T16:59:11.489Z,6.97
2023-05-28T17:01:38.352Z,5.95
2023-05-28T17:04:05.124Z,6.43
2023-05-28T17:06:32.019Z,3.10
2023-05-28T17:08:58.817Z,6.25
2023-05-28T17:11:25.752Z,4.68
2023-05-28T17:13:52.508Z,3.20
2023-05-28T17:16:19.858Z,4.53
2023-05-28T17:18:48.104Z,3.25
2023-05-28T17:21:14.701Z,2.78
2023-05-28T17:23:41.364Z,4.13
2023-05-28T17:26:08.334Z,4.45
2023-05-28T17:28:34.982Z,5.18
2023-05-28T17:31:01.551Z,3.38
2023-05-28T17:33:28.255Z,4.00
2023-05-28T17:35:54.910Z,2.85
2023-05-28T17:38:21.532Z,3.92
2023-05-28T17:40:50.907Z,3.95
2023-05-28T17:43:17.731Z,3.40
2023-05-28T17:45:44.438Z,4.30
2023-05-28T17:48:11.870Z,6.80
2023-05-28T17:50:38.514Z,2.47
2023-05-28T17:53:06.240Z,3.90
2023-05-28T17:55:33.399Z,2.25
2023-05-28T17:58:00.339Z,2.95
2023-05-28T18:00:27.472Z,3.28
2023-05-28T18:02:56.240Z,6.28
2023-05-28T18:05:23.699Z,3.90
2023-05-28T18:07:51.098Z,3.45
2023-05-28T18:10:17.738Z,3.03
2023-05-28T18:12:44.469Z,3.33
2023-05-28T18:15:11.994Z,3.50
2023-05-28T18:17:39.366Z,4.40
2023-05-28T18:20:07.897Z,6.03
2023-05-28T18:22:34.604Z,4.70
2023-05-28T18:25:01.300Z,4.60
2023-05-28T18:27:27.891Z,3.88
2023-05-28T18:29:54.455Z,2.97
2023-05-28T18:32:21.078Z,4.97
2023-05-28T18:34:47.701Z,3.42
2023-05-28T18:37:14.363Z,5.30
2023-05-28T18:39:41.184Z,3.05
2023-05-28T18:42:07.865Z,3.85
2023-05-28T18:44:34.885Z,3.40
2023-05-28T18:47:01.690Z,4.10
2023-05-28T18:49:28.674Z,3.97
2023-05-28T18:51:55.251Z,3.72
2023-05-28T18:54:23.546Z,5.47
2023-05-28T18:56:50.132Z,3.65
2023-05-28T18:59:16.803Z,3.33
2023-05-28T19:01:43.533Z,4.80
2023-05-28T19:04:10.370Z,4.15
2023-05-28T19:06:39.996Z,6.10
2023-05-28T19:09:06.997Z,5.63
2023-05-28T19:11:33.702Z,5.53
2023-05-28T19:14:00.351Z,5.22
2023-05-28T19:16:27.951Z,5.90
2023-05-28T19:18:56.139Z,6.60
2023-05-28T19:21:23.727Z,7.18
2023-05-28T19:23:50.527Z,6.43
2023-05-28T19:26:17.763Z,4.88
2023-05-28T19:28:45.415Z,4.10
2023-05-28T19:31:12.034Z,4.60
2023-05-28T19:33:38.678Z,10.43
2023-05-28T19:36:07.572Z,4.80
2023-05-28T19:38:34.372Z,5.78
2023-05-28T19:41:01.010Z,5.45
2023-05-28T19:43:27.641Z,6.50
2023-05-28T19:45:54.295Z,5.15
2023-05-28T19:48:21.095Z,8.27
2023-05-28T19:50:48.147Z,6.63
2023-05-28T19:53:15.131Z,4.53
2023-05-28T19:55:41.809Z,7.30
2023-05-28T19:58:10.766Z,3.25
2023-05-28T20:00:37.733Z,2.63
2023-05-28T20:03:04.517Z,3.85
2023-05-28T20:05:31.220Z,3.83
2023-05-28T20:07:58.015Z,5.32
2023-05-28T20:10:24.874Z,5.95
2023-05-28T20:12:51.483Z,3.20
2023-05-28T20:15:18.250Z,4.38
2023-05-28T20:17:45.196Z,7.07
2023-05-28T20:20:12.141Z,4.68
2023-05-28T20:22:39.791Z,5.78
2023-05-28T20:25:08.252Z,6.57
2023-05-28T20:27:36.742Z,3.20
2023-05-28T20:30:05.644Z,6.63
2023-05-28T20:32:32.830Z,5.22
2023-05-28T20:34:59.496Z,3.90
2023-05-28T20:37:26.144Z,11.40
2023-05-28T20:39:54.185Z,4.40
2023-05-28T20:42:20.797Z,6.68
2023-05-28T20:44:47.436Z,3.95
2023-05-28T20:47:15.200Z,4.60
2023-05-28T20:49:42.033Z,7.30
2023-05-28T20:52:09.825Z,4.00
2023-05-28T20:54:36.865Z,3.03
2023-05-28T20:57:06.923Z,7.10
2023-05-28T20:59:34.484Z,6.30
2023-05-28T21:02:01.364Z,8.25
2023-05-28T21:04:28.005Z,5.10
2023-05-28T21:06:54.719Z,6.00
2023-05-28T21:09:21.343Z,3.50
2023-05-28T21:11:48.018Z,2.92
2023-05-28T21:14:14.696Z,5.28
2023-05-28T21:16:41.444Z,4.35
2023-05-28T21:19:08.150Z,2.83
2023-05-28T21:21:35.019Z,4.28
2023-05-28T21:24:01.707Z,6.60
2023-05-28T21:26:28.393Z,5.90
2023-05-28T21:28:55.047Z,6.20
2023-05-28T21:31:21.949Z,5.10
2023-05-28T21:33:48.671Z,5.20
2023-05-28T21:36:15.392Z,3.95
2023-05-28T21:38:43.628Z,4.32
2023-05-28T21:41:10.387Z,8.30
2023-05-28T21:43:37.185Z,5.95
2023-05-28T21:46:06.203Z,6.18
2023-05-28T21:48:32.939Z,5.65
2023-05-28T21:50:59.680Z,5.30
2023-05-28T21:53:26.852Z,3.80
2023-05-28T21:55:53.919Z,3.42
2023-05-28T21:58:22.587Z,4.85
2023-05-28T22:00:49.761Z,5.70
2023-05-28T22:03:16.663Z,5.72
2023-05-28T22:05:43.332Z,3.85
2023-05-28T22:08:10.042Z,5.93
2023-05-28T22:10:36.797Z,5.93
2023-05-28T22:13:03.469Z,4.90
2023-05-28T22:15:31.837Z,12.52
2023-05-28T22:17:58.830Z,10.25
2023-05-28T22:20:35.000Z,5.40
2023-05-28T22:23:08.841Z,6.00
2023-05-28T22:25:35.481Z,5.60
2023-05-28T22:28:02.113Z,6.03
2023-05-28T22:30:28.706Z,9.52
2023-05-28T22:32:58.522Z,4.55
2023-05-28T22:35:25.731Z,3.60
2023-05-28T22:37:52.441Z,4.60
2023-05-28T22:40:19.213Z,6.00
2023-05-28T22:42:45.934Z,4.30
2023-05-28T22:45:14.298Z,7.30
2023-05-28T22:47:47.906Z,5.00
2023-05-28T22:50:15.545Z,3.50
2023-05-28T22:52:43.033Z,9.15
2023-05-28T22:55:11.087Z,7.35
2023-05-28T22:57:37.760Z,5.45
2023-05-28T23:00:10.057Z,3.40
2023-05-28T23:02:39.399Z,6.60
2023-05-28T23:05:07.998Z,7.07
2023-05-28T23:07:35.043Z,5.88
2023-05-28T23:10:01.727Z,6.68
2023-05-28T23:12:28.363Z,8.85
2023-05-28T23:14:54.955Z,8.80
2023-05-28T23:17:22.804Z,7.65
2023-05-28T23:19:49.463Z,5.78
2023-05-28T23:22:16.691Z,7.68
2023-05-28T23:24:43.723Z,8.75
2023-05-28T23:27:10.413Z,5.55
2023-05-28T23:29:38.280Z,3.58
2023-05-28T23:32:06.438Z,5.47
2023-05-28T23:34:33.705Z,4.82
2023-05-28T23:37:01.590Z,10.63
2023-05-28T23:39:28.485Z,11.55
2023-05-28T23:41:55.219Z,5.32
2023-05-28T23:44:21.883Z,7.50
2023-05-28T23:46:49.471Z,6.20
2023-05-28T23:49:18.237Z,3.95
2023-05-28T23:51:45.418Z,7.13
2023-05-28T23:54:12.598Z,3.67
2023-05-28T23:56:39.375Z,8.07
2023-05-28T23:59:05.986Z,6.40
